Terminal Aerodrome Forecast
Issued by NWS Albany, NY

Home | Current Version | Previous Version | Text Only | Print | Product List | Glossary On
Versions: 1 2 3 4 5 6 7 8 9 10 11 12 13 14 15
000
FTUS41 KALY 300531
TAFPOU
TAF
KPOU 300531Z 3006/3106 00000KT P6SM SCT250
     FM301000 VRB03KT P6SM SCT025 BKN150
      TEMPO 3010/3014 BKN025
     FM301400 22006KT P6SM BKN035
     FM301800 22007KT P6SM VCSH BKN045
     FM302000 23006KT 6SM -SHRA BR SCT015 OVC040 PROB30 3020/3022
      VRB15G25KT 2SM TSRA OVC015CB
     FM302300 VRB03KT P6SM BKN045
     FM310400 23004KT P6SM SKC=

USA.gov is the U.S. government's official web portal to all federal, state and local government web resources and services.